createdAt,value
2017-12-11T00:01:25.749Z,0.90
2017-12-11T00:03:54.753Z,0.90
2017-12-11T00:06:23.861Z,0.90
2017-12-11T00:08:52.843Z,0.90
2017-12-11T00:11:21.812Z,0.90
2017-12-11T00:13:51.556Z,0.80
2017-12-11T00:16:20.503Z,0.80
2017-12-11T00:18:49.511Z,0.90
2017-12-11T00:21:18.504Z,0.90
2017-12-11T00:23:47.506Z,0.90
2017-12-11T00:26:16.891Z,0.90
2017-12-11T00:28:46.702Z,0.90
2017-12-11T00:31:15.910Z,0.90
2017-12-11T00:33:45.290Z,0.90
2017-12-11T00:36:14.294Z,0.90
2017-12-11T00:38:43.282Z,0.90
2017-12-11T00:41:12.261Z,0.90
2017-12-11T00:43:41.641Z,1.00
2017-12-11T00:46:10.618Z,0.90
2017-12-11T00:48:40.394Z,1.00
2017-12-11T00:51:09.372Z,1.00
2017-12-11T00:53:38.759Z,1.00
2017-12-11T00:56:08.534Z,1.00
2017-12-11T00:58:37.544Z,0.80
2017-12-11T01:01:07.309Z,0.90
2017-12-11T01:03:36.675Z,0.90
2017-12-11T01:06:05.657Z,1.00
2017-12-11T01:08:35.403Z,1.00
2017-12-11T01:11:04.883Z,1.00
2017-12-11T01:13:34.629Z,0.90
2017-12-11T01:16:04.066Z,0.80
2017-12-11T01:18:33.439Z,0.90
2017-12-11T01:21:02.813Z,0.90
2017-12-11T01:23:31.819Z,0.90
2017-12-11T01:26:01.628Z,0.90
2017-12-11T01:28:30.610Z,0.90
2017-12-11T01:30:59.621Z,1.10
2017-12-11T01:33:28.587Z,1.10
2017-12-11T01:35:57.581Z,1.10
2017-12-11T01:38:26.636Z,1.20
2017-12-11T01:40:55.626Z,1.20
2017-12-11T01:43:24.612Z,1.20
2017-12-11T01:45:53.995Z,1.20
2017-12-11T01:48:23.764Z,1.00
2017-12-11T01:50:53.533Z,1.20
2017-12-11T01:53:22.514Z,1.20
2017-12-11T01:55:51.484Z,1.30
2017-12-11T01:58:20.439Z,1.10
2017-12-11T02:00:49.447Z,1.20
2017-12-11T02:03:18.424Z,1.20
2017-12-11T02:05:47.385Z,1.20
2017-12-11T02:08:16.483Z,1.20
2017-12-11T02:10:45.498Z,1.20
2017-12-11T02:13:14.879Z,1.10
2017-12-11T02:15:43.880Z,1.10
2017-12-11T02:18:12.845Z,1.10
2017-12-11T02:20:41.814Z,1.10
2017-12-11T02:23:11.567Z,1.10
2017-12-11T02:25:40.539Z,1.00
2017-12-11T02:28:09.511Z,1.10
2017-12-11T02:30:38.499Z,1.30
2017-12-11T02:33:07.477Z,1.20
2017-12-11T02:35:36.861Z,1.20
2017-12-11T02:38:06.593Z,1.20
2017-12-11T02:40:35.588Z,1.20
2017-12-11T02:43:04.551Z,1.20
2017-12-11T02:45:33.919Z,1.30
2017-12-11T02:48:03.648Z,1.30
2017-12-11T02:50:32.650Z,1.30
2017-12-11T02:53:02.361Z,1.20
2017-12-11T02:55:32.131Z,1.20
2017-12-11T02:58:01.112Z,1.30
2017-12-11T03:00:30.484Z,1.30
2017-12-11T03:02:59.483Z,1.30
2017-12-11T03:05:28.474Z,1.30
2017-12-11T03:07:58.326Z,1.30
2017-12-11T03:10:27.332Z,1.30
2017-12-11T03:12:56.730Z,1.30
2017-12-11T03:15:26.531Z,1.30
2017-12-11T03:17:55.588Z,1.40
2017-12-11T03:20:24.983Z,1.40
2017-12-11T03:22:54.340Z,1.40
2017-12-11T03:25:23.333Z,1.40
2017-12-11T03:27:52.683Z,1.30
2017-12-11T03:30:21.732Z,1.30
2017-12-11T03:32:51.493Z,1.30
2017-12-11T03:35:20.456Z,1.30
2017-12-11T03:37:50.236Z,1.20
2017-12-11T03:40:19.194Z,1.20
2017-12-11T03:42:48.193Z,1.30
2017-12-11T03:45:17.189Z,1.20
2017-12-11T03:47:46.552Z,1.10
2017-12-11T03:50:16.319Z,1.10
2017-12-11T03:52:45.721Z,1.20
2017-12-11T03:55:15.498Z,1.10
2017-12-11T03:57:44.469Z,1.20
2017-12-11T04:00:14.249Z,1.20
2017-12-11T04:02:43.221Z,1.20
2017-12-11T04:05:12.212Z,1.00
2017-12-11T04:07:41.972Z,1.00
2017-12-11T04:10:11.336Z,1.10
2017-12-11T04:12:40.351Z,1.20
2017-12-11T04:15:09.755Z,1.10
2017-12-11T04:17:39.513Z,1.20
2017-12-11T04:20:08.505Z,1.30
2017-12-11T04:22:37.497Z,1.30
2017-12-11T04:25:06.533Z,1.30
2017-12-11T04:27:35.567Z,1.30
2017-12-11T04:30:05.292Z,1.30
2017-12-11T04:32:34.728Z,1.40
2017-12-11T04:35:03.714Z,1.50
2017-12-11T04:37:32.683Z,1.40
2017-12-11T04:40:01.771Z,1.40
2017-12-11T04:42:30.768Z,1.50
2017-12-11T04:44:59.748Z,1.50
2017-12-11T04:47:28.753Z,1.40
2017-12-11T04:49:57.869Z,1.50
2017-12-11T04:52:27.618Z,1.50
2017-12-11T04:54:57.396Z,1.50
2017-12-11T04:57:26.392Z,1.50
2017-12-11T04:59:55.763Z,1.50
2017-12-11T05:02:25.541Z,1.50
2017-12-11T05:04:55.290Z,1.50
2017-12-11T05:07:24.278Z,1.50
2017-12-11T05:09:53.291Z,1.50
2017-12-11T05:12:22.349Z,1.50
2017-12-11T05:14:51.340Z,1.50
2017-12-11T05:17:20.708Z,1.50
2017-12-11T05:19:50.496Z,1.40
2017-12-11T05:22:19.500Z,1.30
2017-12-11T05:24:48.524Z,1.20
2017-12-11T05:27:17.541Z,1.20
2017-12-11T05:29:46.906Z,1.30
2017-12-11T05:32:16.715Z,1.30
2017-12-11T05:34:45.707Z,1.40
2017-12-11T05:37:14.714Z,1.40
2017-12-11T05:39:43.737Z,1.50
2017-12-11T05:42:12.731Z,1.50
2017-12-11T05:44:41.691Z,1.40
2017-12-11T05:47:12.096Z,1.40
2017-12-11T05:49:41.587Z,1.40
2017-12-11T05:52:10.567Z,1.40
2017-12-11T05:54:39.612Z,1.40
2017-12-11T05:57:09.434Z,1.50
2017-12-11T05:59:38.903Z,1.50
2017-12-11T06:02:07.981Z,1.70
2017-12-11T06:04:37.743Z,1.80
2017-12-11T06:07:06.763Z,1.70
2017-12-11T06:09:36.465Z,1.70
2017-12-11T06:12:05.455Z,1.70
2017-12-11T06:14:34.487Z,1.60
2017-12-11T06:17:03.885Z,1.50
2017-12-11T06:19:33.644Z,1.60
2017-12-11T06:22:02.631Z,1.60
2017-12-11T06:24:32.404Z,1.60
2017-12-11T06:27:01.788Z,1.50
2017-12-11T06:29:30.793Z,1.50
2017-12-11T06:31:59.806Z,1.50
2017-12-11T06:34:29.550Z,1.50
2017-12-11T06:36:58.571Z,1.50
2017-12-11T06:39:27.557Z,1.50
2017-12-11T06:41:56.552Z,1.50
2017-12-11T06:44:25.969Z,1.50
2017-12-11T06:46:54.967Z,1.50
2017-12-11T06:49:23.993Z,1.60
2017-12-11T06:51:53.722Z,1.50
2017-12-11T06:54:22.770Z,1.40
2017-12-11T06:56:51.824Z,1.40
2017-12-11T06:59:21.602Z,1.40
2017-12-11T07:01:50.597Z,1.30
2017-12-11T07:04:19.572Z,1.30
2017-12-11T07:06:49.349Z,1.20
2017-12-11T07:09:18.331Z,1.20
2017-12-11T07:11:47.722Z,1.10
2017-12-11T07:14:17.117Z,1.10
2017-12-11T07:16:46.504Z,1.00
2017-12-11T07:19:15.864Z,1.00
2017-12-11T07:21:44.887Z,0.90
2017-12-11T07:24:14.605Z,0.90
2017-12-11T07:26:44.343Z,0.90
2017-12-11T07:29:14.710Z,0.90
2017-12-11T07:31:44.493Z,0.80
2017-12-11T07:34:13.735Z,0.80
2017-12-11T07:36:43.161Z,0.80
2017-12-11T07:39:13.094Z,0.70
2017-12-11T07:41:42.469Z,0.70
2017-12-11T07:44:12.710Z,0.80
2017-12-11T07:46:42.780Z,0.70
2017-12-11T07:49:12.398Z,0.70
2017-12-11T07:51:43.668Z,0.80
2017-12-11T07:54:13.361Z,0.80
2017-12-11T07:56:42.394Z,0.80
2017-12-11T07:59:12.232Z,0.80
2017-12-11T08:01:43.269Z,0.90
2017-12-11T08:04:13.571Z,0.90
2017-12-11T08:06:42.674Z,0.90
2017-12-11T08:09:11.681Z,0.90
2017-12-11T08:11:41.468Z,0.90
2017-12-11T08:14:11.886Z,1.00
2017-12-11T08:16:42.079Z,1.00
2017-12-11T08:19:11.165Z,1.10
2017-12-11T08:21:42.101Z,1.10
2017-12-11T08:24:12.242Z,1.20
2017-12-11T08:26:41.525Z,1.20
2017-12-11T08:29:11.327Z,1.20
2017-12-11T08:31:40.571Z,1.20
2017-12-11T08:34:10.472Z,1.30
2017-12-11T08:36:39.597Z,1.30
2017-12-11T08:39:08.801Z,1.30
2017-12-11T08:41:37.817Z,1.40
2017-12-11T08:44:07.971Z,1.40
2017-12-11T08:46:38.307Z,1.50
2017-12-11T08:49:07.770Z,1.60
2017-12-11T08:51:39.542Z,1.60
2017-12-11T08:54:09.397Z,1.60
2017-12-11T08:56:38.422Z,1.70
2017-12-11T08:59:07.862Z,1.70
2017-12-11T09:01:37.695Z,1.60
2017-12-11T09:04:08.118Z,1.70
2017-12-11T09:06:37.357Z,1.70
2017-12-11T09:09:06.766Z,1.70
2017-12-11T09:11:35.782Z,1.80
2017-12-11T09:14:05.535Z,1.80
2017-12-11T09:16:34.517Z,1.90
2017-12-11T09:19:03.526Z,1.80
2017-12-11T09:21:32.498Z,1.70
2017-12-11T09:24:02.231Z,1.70
2017-12-11T09:26:32.041Z,2.70
2017-12-11T09:29:01.834Z,1.70
2017-12-11T09:31:31.219Z,1.70
2017-12-11T09:34:00.598Z,1.80
2017-12-11T09:36:30.415Z,1.80
2017-12-11T09:39:00.279Z,1.80
2017-12-11T09:41:30.140Z,1.70
2017-12-11T09:44:00.188Z,1.70
2017-12-11T09:46:30.497Z,1.80
2017-12-11T09:48:59.562Z,1.80
2017-12-11T09:51:29.114Z,1.90
2017-12-11T09:53:58.791Z,1.90
2017-12-11T09:56:27.995Z,1.90
2017-12-11T09:58:57.012Z,2.00
2017-12-11T10:01:26.119Z,2.00
2017-12-11T10:03:55.554Z,2.00
2017-12-11T10:06:24.707Z,2.00
2017-12-11T10:08:53.716Z,1.90
2017-12-11T10:11:22.838Z,2.00
2017-12-11T10:13:54.472Z,2.00
2017-12-11T10:16:26.483Z,2.00
2017-12-11T10:18:55.542Z,2.00
2017-12-11T10:21:24.606Z,2.00
2017-12-11T10:23:54.339Z,2.00
2017-12-11T10:26:24.036Z,2.00
2017-12-11T10:28:53.994Z,2.00
2017-12-11T10:31:23.064Z,2.10
2017-12-11T10:33:54.051Z,2.10
2017-12-11T10:36:23.756Z,2.10
2017-12-11T10:38:53.613Z,2.10
2017-12-11T10:41:23.807Z,2.10
2017-12-11T10:43:53.329Z,2.10
2017-12-11T10:46:23.192Z,2.10
2017-12-11T10:48:52.546Z,2.10
2017-12-11T10:51:21.810Z,2.20
2017-12-11T10:53:52.638Z,2.20
2017-12-11T10:56:22.473Z,2.10
2017-12-11T10:58:51.546Z,2.10
2017-12-11T11:01:20.684Z,2.10
2017-12-11T11:03:50.480Z,2.10
2017-12-11T11:06:20.394Z,2.10
2017-12-11T11:08:49.624Z,2.10
2017-12-11T11:11:18.642Z,2.10
2017-12-11T11:13:47.823Z,2.10
2017-12-11T11:16:17.719Z,2.10
2017-12-11T11:18:48.386Z,2.10
2017-12-11T11:21:17.521Z,2.00
2017-12-11T11:23:47.318Z,2.00
2017-12-11T11:26:17.015Z,2.10
2017-12-11T11:28:47.292Z,2.10
2017-12-11T11:31:17.512Z,2.10
2017-12-11T11:33:48.022Z,2.10
2017-12-11T11:36:17.877Z,2.00
2017-12-11T11:38:47.557Z,2.00
2017-12-11T11:41:16.583Z,2.00
2017-12-11T11:43:46.516Z,2.10
2017-12-11T11:46:16.426Z,2.10
2017-12-11T11:48:45.999Z,2.10
2017-12-11T11:51:15.859Z,2.10
2017-12-11T11:53:45.581Z,2.10
2017-12-11T11:56:14.677Z,2.10
2017-12-11T11:58:44.413Z,2.20
2017-12-11T12:01:13.455Z,2.20
2017-12-11T12:03:43.225Z,2.30
2017-12-11T12:06:12.271Z,2.30
2017-12-11T12:08:42.629Z,2.20
2017-12-11T12:11:13.299Z,2.20
2017-12-11T12:13:42.315Z,2.10
2017-12-11T12:16:11.793Z,2.30
2017-12-11T12:18:41.731Z,2.00
2017-12-11T12:21:12.110Z,2.00
2017-12-11T12:23:42.421Z,2.00
2017-12-11T12:26:14.118Z,2.00
2017-12-11T12:28:43.673Z,2.10
2017-12-11T12:31:13.151Z,2.10
2017-12-11T12:33:42.648Z,2.20
2017-12-11T12:36:12.157Z,2.20
2017-12-11T12:38:42.570Z,2.20
2017-12-11T12:41:11.663Z,2.10
2017-12-11T12:43:41.721Z,2.10
2017-12-11T12:46:11.816Z,2.00
2017-12-11T12:48:41.668Z,2.00
2017-12-11T12:51:10.776Z,2.00
2017-12-11T12:53:39.854Z,2.10
2017-12-11T12:56:08.904Z,2.10
2017-12-11T12:58:38.438Z,2.10
2017-12-11T13:01:08.463Z,2.10
2017-12-11T13:03:37.684Z,2.10
2017-12-11T13:06:07.774Z,2.00
2017-12-11T13:08:37.566Z,2.10
2017-12-11T13:11:07.312Z,2.20
2017-12-11T13:13:36.295Z,2.10
2017-12-11T13:16:05.704Z,2.10
2017-12-11T13:18:34.694Z,2.10
2017-12-11T13:21:03.677Z,2.10
2017-12-11T13:23:33.076Z,2.00
2017-12-11T13:26:02.865Z,2.00
2017-12-11T13:28:32.642Z,2.00
2017-12-11T13:31:02.121Z,2.00
2017-12-11T13:33:31.985Z,1.90
2017-12-11T13:36:01.738Z,1.90
2017-12-11T13:38:30.737Z,1.90
2017-12-11T13:41:00.503Z,1.80
2017-12-11T13:43:29.498Z,1.90
2017-12-11T13:45:58.525Z,1.00
2017-12-11T13:48:27.895Z,2.00
2017-12-11T13:50:57.429Z,2.00
2017-12-11T13:53:26.456Z,1.90
2017-12-11T13:55:57.986Z,1.90
2017-12-11T13:58:27.397Z,1.90
2017-12-11T14:00:56.792Z,1.90
2017-12-11T14:03:26.680Z,1.80
2017-12-11T14:05:55.721Z,1.80
2017-12-11T14:08:25.556Z,1.80
2017-12-11T14:10:55.302Z,1.80
2017-12-11T14:13:25.096Z,1.90
2017-12-11T14:15:54.115Z,1.90
2017-12-11T14:18:23.513Z,1.80
2017-12-11T14:20:52.938Z,1.80
2017-12-11T14:23:21.926Z,1.70
2017-12-11T14:25:50.952Z,1.70
2017-12-11T14:28:20.341Z,1.80
2017-12-11T14:30:50.117Z,1.80
2017-12-11T14:33:19.147Z,1.80
2017-12-11T14:35:48.230Z,1.70
2017-12-11T14:38:17.241Z,1.70
2017-12-11T14:40:47.007Z,1.70
2017-12-11T14:43:16.767Z,1.70
2017-12-11T14:45:45.761Z,1.60
2017-12-11T14:48:15.547Z,1.70
2017-12-11T14:50:44.572Z,1.70
2017-12-11T14:53:13.562Z,1.60
2017-12-11T14:55:42.567Z,1.70
2017-12-11T14:58:11.598Z,1.60
2017-12-11T15:00:41.434Z,1.50
2017-12-11T15:03:10.442Z,1.60
2017-12-11T15:05:40.216Z,1.60
2017-12-11T15:08:09.207Z,1.60
2017-12-11T15:10:38.246Z,1.60
2017-12-11T15:13:08.008Z,1.50
2017-12-11T15:15:37.895Z,1.60
2017-12-11T15:18:06.927Z,1.50
2017-12-11T15:20:36.671Z,1.50
2017-12-11T15:23:06.477Z,1.30
2017-12-11T15:25:36.363Z,1.30
2017-12-11T15:28:05.891Z,1.40
2017-12-11T15:30:35.674Z,1.30
2017-12-11T15:33:05.038Z,1.40
2017-12-11T15:35:34.034Z,1.50
2017-12-11T15:38:03.001Z,1.60
2017-12-11T15:40:32.399Z,1.60
2017-12-11T15:43:01.383Z,1.70
2017-12-11T15:45:31.143Z,1.80
2017-12-11T15:48:00.139Z,1.80
2017-12-11T15:50:29.141Z,1.70
2017-12-11T15:52:58.916Z,1.70
2017-12-11T15:55:27.971Z,1.70
2017-12-11T15:57:57.728Z,1.70
2017-12-11T16:00:27.153Z,1.70
2017-12-11T16:02:56.918Z,1.70
2017-12-11T16:05:26.681Z,1.80
2017-12-11T16:07:56.479Z,1.80
2017-12-11T16:10:25.851Z,1.70
2017-12-11T16:12:54.881Z,1.70
2017-12-11T16:15:23.953Z,1.70
2017-12-11T16:17:53.678Z,1.80
2017-12-11T16:20:22.690Z,1.80
2017-12-11T16:22:51.796Z,1.60
2017-12-11T16:25:21.564Z,1.70
2017-12-11T16:27:50.585Z,1.70
2017-12-11T16:30:19.578Z,1.70
2017-12-11T16:32:48.564Z,1.80
2017-12-11T16:35:18.000Z,1.70
2017-12-11T16:37:47.773Z,1.80
2017-12-11T16:40:16.806Z,1.80
2017-12-11T16:42:46.637Z,1.80
2017-12-11T16:45:15.614Z,1.80
2017-12-11T16:47:45.426Z,1.80
2017-12-11T16:50:15.297Z,1.80
2017-12-11T16:52:45.126Z,1.90
2017-12-11T16:55:14.154Z,1.90
2017-12-11T16:57:43.336Z,1.90
2017-12-11T17:00:12.341Z,1.80
2017-12-11T17:02:41.737Z,1.80
2017-12-11T17:05:11.542Z,1.90
2017-12-11T17:07:40.965Z,1.90
2017-12-11T17:10:10.362Z,1.80
2017-12-11T17:12:40.120Z,1.80
2017-12-11T17:15:09.523Z,1.80
2017-12-11T17:17:38.547Z,1.80
2017-12-11T17:20:07.593Z,1.80
2017-12-11T17:22:36.556Z,1.80
2017-12-11T17:25:05.576Z,1.80
2017-12-11T17:27:34.553Z,1.90
2017-12-11T17:30:03.581Z,2.00
2017-12-11T17:32:32.794Z,1.90
2017-12-11T17:35:01.796Z,1.90
2017-12-11T17:37:31.188Z,1.80
2017-12-11T17:40:00.989Z,1.90
2017-12-11T17:42:30.773Z,1.80
2017-12-11T17:44:59.817Z,1.80
2017-12-11T17:47:29.642Z,1.80
2017-12-11T17:49:59.425Z,1.80
2017-12-11T17:52:28.491Z,1.80
2017-12-11T17:54:58.296Z,1.80
2017-12-11T17:57:27.284Z,1.80
2017-12-11T17:59:56.685Z,2.00
2017-12-11T18:02:25.712Z,2.00
2017-12-11T18:04:54.708Z,1.90
2017-12-11T18:07:23.745Z,2.00
2017-12-11T18:09:52.776Z,2.00
2017-12-11T18:12:22.419Z,1.90
2017-12-11T18:14:52.275Z,1.90
2017-12-11T18:17:21.681Z,1.80
2017-12-11T18:19:50.713Z,1.90
2017-12-11T18:22:19.713Z,2.00
2017-12-11T18:24:48.745Z,2.10
2017-12-11T18:27:17.783Z,2.00
2017-12-11T18:29:47.568Z,2.00
2017-12-11T18:32:16.631Z,1.90
2017-12-11T18:34:46.378Z,1.90
2017-12-11T18:37:15.534Z,1.90
2017-12-11T18:39:45.291Z,1.80
2017-12-11T18:42:14.270Z,1.70
2017-12-11T18:44:44.050Z,1.70
2017-12-11T18:47:13.804Z,1.80
2017-12-11T18:49:43.614Z,1.90
2017-12-11T18:52:12.596Z,1.90
2017-12-11T18:54:43.429Z,1.90
2017-12-11T18:57:12.472Z,2.00
2017-12-11T18:59:41.883Z,2.00
2017-12-11T19:02:12.696Z,1.80
2017-12-11T19:04:42.465Z,1.90
2017-12-11T19:07:11.905Z,1.90
2017-12-11T19:09:40.886Z,1.90
2017-12-11T19:12:10.696Z,1.90
2017-12-11T19:14:40.131Z,1.90
2017-12-11T19:17:10.405Z,1.90
2017-12-11T19:19:39.458Z,1.80
2017-12-11T19:22:08.498Z,1.90
2017-12-11T19:24:37.961Z,2.10
2017-12-11T19:27:07.786Z,1.90
2017-12-11T19:29:37.822Z,1.80
2017-12-11T19:32:07.627Z,1.80
2017-12-11T19:34:37.444Z,1.80
2017-12-11T19:37:06.499Z,1.80
2017-12-11T19:39:37.241Z,1.90
2017-12-11T19:42:06.666Z,2.00
2017-12-11T19:44:35.709Z,2.00
2017-12-11T19:47:05.530Z,2.00
2017-12-11T19:49:34.551Z,2.00
2017-12-11T19:52:05.028Z,2.00
2017-12-11T19:54:34.867Z,2.10
2017-12-11T19:57:03.905Z,2.10
2017-12-11T19:59:33.040Z,2.10
2017-12-11T20:02:02.085Z,2.10
2017-12-11T20:04:32.069Z,2.00
2017-12-11T20:07:01.124Z,2.00
2017-12-11T20:09:30.174Z,2.00
2017-12-11T20:11:59.635Z,2.00
2017-12-11T20:14:29.120Z,1.90
2017-12-11T20:16:58.599Z,1.90
2017-12-11T20:19:28.080Z,2.00
2017-12-11T20:21:57.706Z,1.90
2017-12-11T20:24:26.723Z,1.90
2017-12-11T20:26:55.748Z,1.80
2017-12-11T20:29:24.802Z,1.80
2017-12-11T20:31:53.842Z,1.90
2017-12-11T20:34:23.329Z,1.80
2017-12-11T20:36:53.730Z,2.00
2017-12-11T20:39:22.766Z,1.90
2017-12-11T20:41:52.606Z,1.80
2017-12-11T20:44:22.125Z,1.90
2017-12-11T20:46:52.420Z,1.80
2017-12-11T20:49:21.613Z,1.90
2017-12-11T20:51:51.419Z,1.90
2017-12-11T20:54:20.927Z,1.90
2017-12-11T20:56:50.364Z,1.90
2017-12-11T20:59:19.423Z,2.00
2017-12-11T21:01:48.507Z,2.00
2017-12-11T21:04:18.354Z,2.00
2017-12-11T21:06:47.431Z,1.90
2017-12-11T21:09:16.838Z,1.90
2017-12-11T21:11:46.697Z,1.90
2017-12-11T21:14:15.762Z,1.90
2017-12-11T21:16:45.619Z,1.90
2017-12-11T21:19:15.386Z,1.90
2017-12-11T21:21:45.377Z,1.80
2017-12-11T21:24:15.210Z,2.00
2017-12-11T21:26:45.026Z,2.00
2017-12-11T21:29:14.087Z,1.90
2017-12-11T21:31:43.095Z,1.80
2017-12-11T21:34:12.599Z,1.80
2017-12-11T21:36:42.053Z,2.20
2017-12-11T21:39:11.385Z,1.90
2017-12-11T21:41:40.373Z,1.90
2017-12-11T21:44:09.422Z,1.90
2017-12-11T21:46:38.382Z,1.90
2017-12-11T21:49:07.788Z,1.90
2017-12-11T21:51:37.619Z,1.90
2017-12-11T21:54:06.626Z,1.90
2017-12-11T21:56:36.082Z,1.80
2017-12-11T21:59:05.183Z,1.90
2017-12-11T22:01:34.582Z,1.90
2017-12-11T22:04:03.538Z,1.90
2017-12-11T22:06:32.547Z,1.80
2017-12-11T22:09:01.547Z,1.70
2017-12-11T22:11:30.505Z,1.80
2017-12-11T22:14:00.271Z,1.80
2017-12-11T22:16:30.140Z,1.70
2017-12-11T22:18:59.144Z,1.70
2017-12-11T22:21:28.138Z,1.60
2017-12-11T22:23:57.343Z,1.60
2017-12-11T22:26:26.305Z,1.70
2017-12-11T22:28:56.733Z,1.70
2017-12-11T22:31:25.736Z,1.70
2017-12-11T22:33:55.514Z,1.70
2017-12-11T22:36:24.489Z,1.80
2017-12-11T22:38:53.464Z,1.90
2017-12-11T22:41:23.213Z,1.80
2017-12-11T22:43:52.651Z,1.80
2017-12-11T22:46:21.717Z,1.80
2017-12-11T22:48:50.679Z,1.80
2017-12-11T22:51:20.212Z,1.80
2017-12-11T22:53:49.169Z,1.90
2017-12-11T22:56:18.527Z,1.80
2017-12-11T22:58:47.915Z,1.90
2017-12-11T23:01:17.269Z,1.90
2017-12-11T23:03:46.633Z,1.90
2017-12-11T23:06:15.591Z,1.90
2017-12-11T23:08:44.604Z,1.90
2017-12-11T23:11:14.356Z,1.90
2017-12-11T23:13:43.335Z,1.90
2017-12-11T23:16:13.094Z,1.80
2017-12-11T23:18:42.503Z,1.80
2017-12-11T23:21:12.800Z,1.80
2017-12-11T23:23:42.559Z,1.70
2017-12-11T23:26:11.925Z,1.70
2017-12-11T23:28:40.945Z,1.80
2017-12-11T23:31:10.673Z,1.80
2017-12-11T23:33:40.520Z,1.70
2017-12-11T23:36:10.283Z,1.70
2017-12-11T23:38:39.235Z,1.80
2017-12-11T23:41:09.027Z,1.70
2017-12-11T23:43:37.995Z,1.70
2017-12-11T23:46:07.760Z,1.70
2017-12-11T23:48:37.171Z,1.60
2017-12-11T23:51:06.147Z,1.70
2017-12-11T23:53:35.522Z,1.60
2017-12-11T23:56:05.297Z,1.70
2017-12-11T23:58:34.259Z,1.70
